Airfield :
LOGIN :

Register | Disclaimer

   EN    FR    IT 

 










Legend :    VFR   Marginal VFR   IFR   Intensive IFR   Very Intensive IFR
Visi :
Ceiling :
>= 8 km
>= 3000ft
5 to 8 km
1000 to 3000 ft
1500m to 5 km
500 to 1000 ft
800 to 1500m
200 to 500 ft
< 800m
< 200 ft
Symbols :   Thunderstorms  Fog  Heavy snow  Heavy precipitations  Wind > 20 kt
SIGMETs :     Misc.  Thunderstorms  Icing  Turbulence  Mountain Waves  Volcanic Ashes







- Airport Elevation : 776 ft
- IATA code : RMS


ETAR - Ramstein Air Base

CURRENT METAR :
  • 200627Z AUTO 26004KT 9999 FEW015 19/16 A2991 RMK AO2 SLP121 $

EXPIRED METARs :
  • 200556Z AUTO 20003KT 9999 CLR 17/15 A2992 RMK AO2 SLP125 T01730151 10173 20132 52009 $
  • 200456Z AUTO 24006KT 9999 CLR 17/15 A2991 RMK AO2 SLP121 T01660149 $
  • 200356Z AUTO 00000KT 9999 CLR 14/14 A2990 RMK AO2 SLP119 T01370137

TAF TAF ETAR
Valid from the 20 at 02:00 until the 21 at 08:00 UTC


200203Z 2002/2108 VRB06KT 9999 FEW010 BKN020 QNH2986INS
BECMG 2008/2009 24010G15KT 9999 SCT020 BKN040 QNH2990INS
BECMG 2010/2011 24010G15KT 8000 -SHRA SCT030 BKN050 QNH2992INS
TEMPO 2012/2016 27015G25KT 8000 -TSRA BKN030CB
BECMG 2017/2018 VRB06KT 9999 NSW FEW020 SCT030 QNH2994INS
BECMG 2100/2101 VRB06KT 8000 BR FEW010 BKN020 QNH3000INS
BECMG 2105/2106 VRB06KT 9999 NSW SCT030 QNH3004INS TX24/2014Z TN12/2102Z
No reported NOTAMs for that airfield.



MET'MAP, your aeronautical weather chart ! - Copyright ORBIFLY December 2007 - Disclaimer

ORBIFLY MET'MAP TEAM :

Programming & Development : Alexandra Zaïnal
Concept & Development : Baudouin d'Aumeries
Co-Development & Prog : Marc-Olivier Méhu
Technical & hardware support : Manuel Goepfert

Contact : metmap@orbifly.com




SOURCES & CREDITS :

   NOAA